Todos
Koodaideri Mine Airport (Newman, WA) OOD Condições meteorológicas
|
Newman, WA (OOD / YKDD)
Céu Limpo
Vento Forte |
|
20 °C |
OOD Previsão da área de terminais
| Date | Time (AWST) | Flight Rules | Wind Dir. | Speed | Type | Height AGL (ft) | Visibility | Remarks | ||||||
|---|---|---|---|---|---|---|---|---|---|---|---|---|---|---|
Histórico recente de METAR OOD
| Date | Time (AWST) | Flight Rules | Wind Dir. | Speed | Type | Height AGL (ft) | Visibility | Temp (°C) | Temp (°F) | Dew Point (°C) | Dew Point (°F) | Rel. Humid. | Pressure | Density Altitude | Remarks |
|---|---|---|---|---|---|---|---|---|---|---|---|---|---|---|---|
| 03-Mai | 01:00 | VFR | 130° | 12 kt | 10000 meters | 20° | 68° | -1° | 30° | 24% | 1017 mb | 2.189 ft | |||
| 03-Mai | 00:00 | VFR | 120° | 13 kt | 10000 meters | 20° | 68° | 1° | 33° | 28% | 1017 mb | 2.189 ft | |||
| 02-Mai | 23:00 | VFR | 130° | 9 kt | 10000 meters | 21° | 69° | 3° | 37° | 30% | 1017 mb | 2.309 ft | |||
| 02-Mai | 22:00 | VFR | 130° | 7 kt | 10000 meters | 21° | 69° | 4° | 39° | 33% | 1017 mb | 2.309 ft | |||
| 02-Mai | 21:00 | VFR | 130° | 8 kt | 10000 meters | 22° | 71° | 4° | 39° | 31% | 1017 mb | 2.429 ft | |||
| 02-Mai | 20:00 | VFR | 110° | 6 kt | Few |
8.900 |
10000 meters | 23° | 73° | 5° | 41° | 31% | 1016 mb | 2.578 ft | |
| 02-Mai | 19:00 | VFR | 110° | 7 kt | 10000 meters | 24° | 75° | 5° | 41° | 29% | 1016 mb | 2.698 ft | |||
| 02-Mai | 18:00 | VFR | 110° | 9 kt | 10000 meters | 25° | 77° | 5° | 41° | 28% | 1015 mb | 2.848 ft | |||
| 02-Mai | 17:00 | VFR | 110° | 9 kt | 10000 meters | 26° | 78° | 5° | 41° | 26% | 1014 mb | 2.997 ft | |||
| 02-Mai | 16:00 | VFR | 130° | 10 kt | 10000 meters | 27° | 80° | 6° | 42° | 26% | 1014 mb | 3.117 ft | |||
| 02-Mai | 15:00 | VFR | 110° | 10 kt | 10000 meters | 26° | 78° | 5° | 41° | 26% | 1014 mb | 2.997 ft | |||
| 02-Mai | 14:00 | VFR | 100° | 12 kt | 10000 meters | 26° | 78° | 5° | 41° | 26% | 1014 mb | 2.997 ft | |||
| 02-Mai | 13:00 | VFR | 110° | 13 kt | 10000 meters | 25° | 77° | 5° | 41° | 28% | 1015 mb | 2.848 ft | |||
| 02-Mai | 12:00 | VFR | 120° | 13 kt | 10000 meters | 24° | 75° | 5° | 41° | 29% | 1016 mb | 2.698 ft | Wind gusting to 25 KT | ||
| 02-Mai | 11:00 | VFR | 130° | 15 kt | 10000 meters | 22° | 71° | 4° | 39° | 31% | 1017 mb | 2.429 ft | |||
| 02-Mai | 10:00 | VFR | 110° | 17 kt | 10000 meters | 22° | 71° | 5° | 41° | 33% | 1018 mb | 2.399 ft | |||
| 02-Mai | 09:00 | VFR | 110° | 17 kt | 10000 meters | 21° | 69° | 5° | 41° | 35% | 1018 mb | 2.279 ft | |||
| 02-Mai | 08:00 | VFR | 110° | 15 kt | 10000 meters | 21° | 69° | 5° | 41° | 35% | 1017 mb | 2.309 ft | |||
| 02-Mai | 07:00 | VFR | 130° | 11 kt | 10000 meters | 20° | 68° | 6° | 42° | 40% | 1016 mb | 2.218 ft | |||
| 02-Mai | 06:00 | VFR | 150° | 13 kt | 10000 meters | 21° | 69° | 6° | 42° | 38% | 1016 mb | 2.338 ft | |||
| 02-Mai | 05:00 | VFR | 120° | 8 kt | Few |
8.800 |
10000 meters | 22° | 71° | 6° | 42° | 35% | 1015 mb | 2.488 ft | |
| 02-Mai | 04:00 | VFR | 150° | 11 kt | 10000 meters | 23° | 73° | 5° | 41° | 31% | 1015 mb | 2.608 ft | |||
| 02-Mai | 03:00 | VFR | 140° | 10 kt | 10000 meters | 24° | 75° | 6° | 42° | 31% | 1014 mb | 2.757 ft | |||
| 02-Mai | 02:00 | VFR | 140° | 9 kt | 10000 meters | 24° | 75° | 8° | 46° | 36% | 1014 mb | 2.757 ft |
Entrar
| Seu navegador não suporta. atualize seu navegador |
